Weather observations for the past three days for
Columbus / Bakalar
Imperial (Metric)
Date Time (edt) Wind (mph) Vis. (mi.) Weather Sky Cond. Temperature (ºF) Relative Humidity Wind Chill (°F) Heat Index (°F) Pressure Precipitation (in)
Air Dwpt 6 hour altimeter (in) sea level (mb) 1 hr 3 hr 6 hr
Max. Min.
05 18:45 Calm 10.00 Fair CLR 87.8 71.6 59% 94 29.87 0.0
05 17:45 W 6 10.00 Fair CLR 89.6 71.6 55% 96 29.88 0.0
05 16:45 N 5 10.00 Fair CLR 93.2 69.8 47% 99 29.88 0.0
05 13:45 SW 12 10.00 Fair CLR 89.6 66.2 46% 92 29.94 0.0
05 12:45 SW 6 10.00 Fair CLR 86 64.4 49% 87 29.97 0.0
05 11:45 S 8 10.00 Fair CLR 84.2 62.6 48% 85 29.97 0.0
05 10:45 SE 12 10.00 Fair CLR 82.4 62.6 51% 83 29.98 0.0
05 09:45 SE 12 10.00 Fair CLR 77 64.4 65% 79 29.99 0.0
05 08:45 SE 12 10.00 Fair CLR 73.4 64.4 74% 29.99 0.0
05 07:45 E 8 10.00 Partly Cloudy SCT100 71.6 66.2 83% 29.99 0.0
05 06:45 Calm 7.00 Fair CLR 71.6 69.8 94% 29.94 0.0
04 20:45 Calm 10.00 Fair CLR 82.4 75.2 79% 89 29.93 0.0
04 19:45 W 3 10.00 Fair CLR 89.6 71.6 55% 96 29.92 0.0
04 17:45 W 8 10.00 Fair CLR 95 71.6 47% 103 29.93 0.0
04 16:45 W 12 10.00 Fair CLR 95 71.6 47% 103 29.95 0.0
04 15:45 W 8 10.00 Fair CLR 95 71.6 47% 103 29.97 0.0
04 14:45 W 8 10.00 Fair CLR 93.2 71.6 50% 101 29.99 0.0
04 13:45 W 9 10.00 Fair CLR 95 71.6 47% 103 30.01 0.0
04 12:45 NW 7 10.00 Fair CLR 93.2 69.8 47% 99 30.02 0.0
04 11:45 Calm 10.00 Fair CLR 91.4 71.6 52% 99 30.03 0.0
04 10:45 SW 6 10.00 Fair CLR 87.8 73.4 62% 96 30.02 0.0
04 09:45 SW 6 10.00 Fair CLR 84.2 73.4 70% 91 30.02 0.0
04 08:45 Calm 10.00 Fair CLR 77 75.2 94% 78 30.02 0.0
04 07:45 Calm 10.00 Fair CLR 71.6 71.6 100% 29.99 0.0
04 06:45 Calm 10.00 Fair CLR 73.4 71.6 94% 29.98 0.0
04 06:30 Calm 10.00 Fair CLR 71.6 71.6 100% 29.99 0.0
03 21:45 Calm 10.00 Fair CLR 80.6 75.2 84% 86 29.99 0.0
03 20:45 Calm 10.00 Partly Cloudy SCT065 82.4 73.4 74% 88 29.98 0.0
03 19:45 Calm 10.00 Fair CLR 89.6 71.6 55% 96 29.96 0.0
03 18:45 SW 6 10.00 Fair CLR 91.4 69.8 49% 97 29.96 0.0
03 17:58 SW 7 10.00 Fair CLR 93.2 69.8 47% 99 29.95 0.0
03 16:55 SW 6 10.00 Fair CLR 95 68 41% 100 29.97 0.0
03 15:58 W 9 10.00 NULL NULL 95 68 41% 100 29.98 0.0
03 14:58 W 9 10.00 Fair CLR 95 68 41% 100 29.99 0.0
03 13:45 W 13 G 17 10.00 Fair CLR 93.2 68 44% 98 30.01 0.0
03 12:45 W 9 10.00 Fair CLR 93.2 69.8 47% 99 30.03 0.0
03 11:45 SW 7 10.00 Fair CLR 89.6 71.6 55% 96 30.04 0.0
03 10:45 W 7 10.00 Fair CLR 86 73.4 66% 93 30.04 0.0
03 09:45 SW 5 10.00 Fair CLR 82.4 73.4 74% 88 30.04 0.0
03 08:45 Calm 10.00 Fair CLR 77 75.2 94% 78 30.05 0.0
03 07:45 Calm 7.00 Fair CLR 71.6 69.8 94% 30.05 0.0
03 06:45 Calm 10.00 Fair CLR 73.4 71.6 94% 30.03 0.0
03 06:30 Calm 10.00 Fair CLR 73.4 71.6 94% 30.03 0.0
02 21:45 S 5 10.00 Fair CLR 82.4 73.4 74% 88 30.01 0.0
02 20:45 SW 7 10.00 Fair CLR 86 71.6 62% 92 30 0.0
02 19:45 SW 7 10.00 Fair CLR 89.6 71.6 55% 96 30 0.0
Date Time (edt) Wind (mph) Vis. (mi.) Weather Sky Cond. Air Dwpt Max. Min. Relative Humidity Wind Chill (°F) Heat Index (°F) altimeter (in) sea level (mb) 1 hr 3 hr 6 hr
6 hour
Temperature (ºF) Pressure Precipitation (in)